sensor_id;sensor_type;location;lat;lon;timestamp;temperature;humidity
76785;SHT30;66893;44.316;0.092;2023-11-19T00:01:26;17.93;54.18
76785;SHT30;66893;44.316;0.092;2023-11-19T00:03:51;17.90;54.14
76785;SHT30;66893;44.316;0.092;2023-11-19T00:06:18;17.87;54.12
76785;SHT30;66893;44.316;0.092;2023-11-19T00:08:44;17.89;54.09
76785;SHT30;66893;44.316;0.092;2023-11-19T00:11:09;17.86;54.13
76785;SHT30;66893;44.316;0.092;2023-11-19T00:13:34;17.83;54.08
76785;SHT30;66893;44.316;0.092;2023-11-19T00:16:00;17.81;54.10
76785;SHT30;66893;44.316;0.092;2023-11-19T00:18:25;17.83;54.04
76785;SHT30;66893;44.316;0.092;2023-11-19T00:20:51;17.82;54.05
76785;SHT30;66893;44.316;0.092;2023-11-19T00:23:16;17.79;53.99
76785;SHT30;66893;44.316;0.092;2023-11-19T00:25:42;17.78;54.01
76785;SHT30;66893;44.316;0.092;2023-11-19T00:28:07;17.76;54.01
76785;SHT30;66893;44.316;0.092;2023-11-19T00:30:33;17.72;53.94
76785;SHT30;66893;44.316;0.092;2023-11-19T00:32:58;17.72;54.05
76785;SHT30;66893;44.316;0.092;2023-11-19T00:35:24;17.71;54.06
76785;SHT30;66893;44.316;0.092;2023-11-19T00:37:49;17.69;54.02
76785;SHT30;66893;44.316;0.092;2023-11-19T00:40:15;17.69;53.96
76785;SHT30;66893;44.316;0.092;2023-11-19T00:42:43;17.67;53.95
76785;SHT30;66893;44.316;0.092;2023-11-19T00:45:09;17.64;53.92
76785;SHT30;66893;44.316;0.092;2023-11-19T00:47:35;17.65;53.93
76785;SHT30;66893;44.316;0.092;2023-11-19T00:50:02;17.61;53.90
76785;SHT30;66893;44.316;0.092;2023-11-19T00:52:27;17.61;53.93
76785;SHT30;66893;44.316;0.092;2023-11-19T00:54:52;17.58;53.88
76785;SHT30;66893;44.316;0.092;2023-11-19T00:57:18;17.59;53.88
76785;SHT30;66893;44.316;0.092;2023-11-19T00:59:44;17.58;53.79
76785;SHT30;66893;44.316;0.092;2023-11-19T01:02:10;17.57;53.84
76785;SHT30;66893;44.316;0.092;2023-11-19T01:04:35;17.54;53.81
76785;SHT30;66893;44.316;0.092;2023-11-19T01:07:02;17.51;53.76
76785;SHT30;66893;44.316;0.092;2023-11-19T01:09:34;17.50;53.77
76785;SHT30;66893;44.316;0.092;2023-11-19T01:12:00;17.48;53.76
76785;SHT30;66893;44.316;0.092;2023-11-19T01:14:27;17.47;53.76
76785;SHT30;66893;44.316;0.092;2023-11-19T01:16:52;17.45;53.79
76785;SHT30;66893;44.316;0.092;2023-11-19T01:19:19;17.44;53.74
76785;SHT30;66893;44.316;0.092;2023-11-19T01:21:45;17.42;53.69
76785;SHT30;66893;44.316;0.092;2023-11-19T01:24:10;17.41;53.72
76785;SHT30;66893;44.316;0.092;2023-11-19T01:26:38;17.40;53.74
76785;SHT30;66893;44.316;0.092;2023-11-19T01:29:03;17.38;53.73
76785;SHT30;66893;44.316;0.092;2023-11-19T01:31:30;17.37;53.66
76785;SHT30;66893;44.316;0.092;2023-11-19T01:33:57;17.35;53.67
76785;SHT30;66893;44.316;0.092;2023-11-19T01:36:22;17.31;53.69
76785;SHT30;66893;44.316;0.092;2023-11-19T01:38:48;17.30;53.68
76785;SHT30;66893;44.316;0.092;2023-11-19T01:41:14;17.31;53.62
76785;SHT30;66893;44.316;0.092;2023-11-19T01:43:39;17.31;53.61
76785;SHT30;66893;44.316;0.092;2023-11-19T01:46:08;17.28;53.61
76785;SHT30;66893;44.316;0.092;2023-11-19T01:48:41;17.26;53.65
76785;SHT30;66893;44.316;0.092;2023-11-19T01:51:08;17.26;53.61
76785;SHT30;66893;44.316;0.092;2023-11-19T01:53:35;17.24;53.52
76785;SHT30;66893;44.316;0.092;2023-11-19T01:56:02;17.21;53.54
76785;SHT30;66893;44.316;0.092;2023-11-19T01:58:28;17.21;53.52
76785;SHT30;66893;44.316;0.092;2023-11-19T02:00:56;17.20;53.57
76785;SHT30;66893;44.316;0.092;2023-11-19T02:03:22;17.16;53.50
76785;SHT30;66893;44.316;0.092;2023-11-19T02:05:50;17.20;53.52
76785;SHT30;66893;44.316;0.092;2023-11-19T02:08:16;17.16;53.54
76785;SHT30;66893;44.316;0.092;2023-11-19T02:10:42;17.16;53.51
76785;SHT30;66893;44.316;0.092;2023-11-19T02:13:08;17.12;53.48
76785;SHT30;66893;44.316;0.092;2023-11-19T02:15:35;17.13;53.44
76785;SHT30;66893;44.316;0.092;2023-11-19T02:20:51;17.06;53.44
76785;SHT30;66893;44.316;0.092;2023-11-19T02:23:18;17.03;53.43
76785;SHT30;66893;44.316;0.092;2023-11-19T02:28:55;17.06;53.45
76785;SHT30;66893;44.316;0.092;2023-11-19T02:31:21;17.06;53.45
76785;SHT30;66893;44.316;0.092;2023-11-19T02:33:48;17.04;53.36
76785;SHT30;66893;44.316;0.092;2023-11-19T02:36:15;17.04;53.28
76785;SHT30;66893;44.316;0.092;2023-11-19T02:38:42;17.02;53.31
76785;SHT30;66893;44.316;0.092;2023-11-19T02:41:07;17.00;53.31
76785;SHT30;66893;44.316;0.092;2023-11-19T02:43:34;16.97;53.31
76785;SHT30;66893;44.316;0.092;2023-11-19T02:46:03;16.97;53.32
76785;SHT30;66893;44.316;0.092;2023-11-19T02:48:35;16.96;53.34
76785;SHT30;66893;44.316;0.092;2023-11-19T02:51:04;16.96;53.36
76785;SHT30;66893;44.316;0.092;2023-11-19T02:53:30;16.96;53.32
76785;SHT30;66893;44.316;0.092;2023-11-19T02:55:56;16.96;53.31
76785;SHT30;66893;44.316;0.092;2023-11-19T02:58:27;16.97;53.27
76785;SHT30;66893;44.316;0.092;2023-11-19T03:00:54;16.97;53.29
76785;SHT30;66893;44.316;0.092;2023-11-19T03:03:25;16.97;53.18
76785;SHT30;66893;44.316;0.092;2023-11-19T03:05:59;16.93;53.19
76785;SHT30;66893;44.316;0.092;2023-11-19T03:08:25;16.90;53.25
76785;SHT30;66893;44.316;0.092;2023-11-19T03:10:50;16.92;53.21
76785;SHT30;66893;44.316;0.092;2023-11-19T03:13:16;16.93;53.23
76785;SHT30;66893;44.316;0.092;2023-11-19T03:15:44;16.93;53.20
76785;SHT30;66893;44.316;0.092;2023-11-19T03:18:10;16.92;53.17
76785;SHT30;66893;44.316;0.092;2023-11-19T03:20:35;16.90;53.19
76785;SHT30;66893;44.316;0.092;2023-11-19T03:23:01;16.89;53.15
76785;SHT30;66893;44.316;0.092;2023-11-19T03:25:27;16.87;53.12
76785;SHT30;66893;44.316;0.092;2023-11-19T03:27:59;16.87;53.11
76785;SHT30;66893;44.316;0.092;2023-11-19T03:30:24;16.87;53.15
76785;SHT30;66893;44.316;0.092;2023-11-19T03:32:50;16.86;53.12
76785;SHT30;66893;44.316;0.092;2023-11-19T03:35:15;16.85;53.13
76785;SHT30;66893;44.316;0.092;2023-11-19T03:37:40;16.85;53.09
76785;SHT30;66893;44.316;0.092;2023-11-19T03:40:06;16.85;53.05
76785;SHT30;66893;44.316;0.092;2023-11-19T03:42:32;16.85;53.12
76785;SHT30;66893;44.316;0.092;2023-11-19T03:44:58;16.82;53.00
76785;SHT30;66893;44.316;0.092;2023-11-19T03:47:23;16.83;53.04
76785;SHT30;66893;44.316;0.092;2023-11-19T03:49:49;16.80;53.09
76785;SHT30;66893;44.316;0.092;2023-11-19T03:52:15;16.79;53.03
76785;SHT30;66893;44.316;0.092;2023-11-19T03:54:41;16.80;53.04
76785;SHT30;66893;44.316;0.092;2023-11-19T03:57:06;16.79;52.98
76785;SHT30;66893;44.316;0.092;2023-11-19T03:59:32;16.79;52.98
76785;SHT30;66893;44.316;0.092;2023-11-19T04:01:58;16.77;52.94
76785;SHT30;66893;44.316;0.092;2023-11-19T04:04:26;16.76;52.96
76785;SHT30;66893;44.316;0.092;2023-11-19T04:06:51;16.75;52.91
76785;SHT30;66893;44.316;0.092;2023-11-19T04:09:17;16.75;52.92
76785;SHT30;66893;44.316;0.092;2023-11-19T04:11:42;16.72;52.84
76785;SHT30;66893;44.316;0.092;2023-11-19T04:14:08;16.69;52.90
76785;SHT30;66893;44.316;0.092;2023-11-19T04:16:33;16.65;52.89
76785;SHT30;66893;44.316;0.092;2023-11-19T04:18:58;16.62;52.90
76785;SHT30;66893;44.316;0.092;2023-11-19T04:21:24;16.64;52.88
76785;SHT30;66893;44.316;0.092;2023-11-19T04:23:49;16.61;52.86
76785;SHT30;66893;44.316;0.092;2023-11-19T04:26:15;16.59;52.88
76785;SHT30;66893;44.316;0.092;2023-11-19T04:28:41;16.57;52.88
76785;SHT30;66893;44.316;0.092;2023-11-19T04:31:06;16.54;52.91
76785;SHT30;66893;44.316;0.092;2023-11-19T04:33:31;16.51;52.95
76785;SHT30;66893;44.316;0.092;2023-11-19T04:35:57;16.54;52.95
76785;SHT30;66893;44.316;0.092;2023-11-19T04:38:22;16.54;52.95
76785;SHT30;66893;44.316;0.092;2023-11-19T04:40:48;16.51;52.87
76785;SHT30;66893;44.316;0.092;2023-11-19T04:43:13;16.49;52.91
76785;SHT30;66893;44.316;0.092;2023-11-19T04:45:38;16.49;52.98
76785;SHT30;66893;44.316;0.092;2023-11-19T04:48:05;16.49;52.96
76785;SHT30;66893;44.316;0.092;2023-11-19T04:50:30;16.48;52.97
76785;SHT30;66893;44.316;0.092;2023-11-19T04:52:56;16.49;52.92
76785;SHT30;66893;44.316;0.092;2023-11-19T04:55:21;16.48;52.91
76785;SHT30;66893;44.316;0.092;2023-11-19T04:57:47;16.49;52.90
76785;SHT30;66893;44.316;0.092;2023-11-19T05:00:13;16.48;52.93
76785;SHT30;66893;44.316;0.092;2023-11-19T05:02:39;16.47;52.87
76785;SHT30;66893;44.316;0.092;2023-11-19T05:05:04;16.48;52.85
76785;SHT30;66893;44.316;0.092;2023-11-19T05:07:30;16.45;52.89
76785;SHT30;66893;44.316;0.092;2023-11-19T05:09:56;16.47;52.86
76785;SHT30;66893;44.316;0.092;2023-11-19T05:12:21;16.45;52.85
76785;SHT30;66893;44.316;0.092;2023-11-19T05:14:48;16.47;52.87
76785;SHT30;66893;44.316;0.092;2023-11-19T05:17:17;16.44;52.88
76785;SHT30;66893;44.316;0.092;2023-11-19T05:19:43;16.45;52.92
76785;SHT30;66893;44.316;0.092;2023-11-19T05:22:08;16.44;52.92
76785;SHT30;66893;44.316;0.092;2023-11-19T05:24:34;16.44;52.91
76785;SHT30;66893;44.316;0.092;2023-11-19T05:26:59;16.44;52.89
76785;SHT30;66893;44.316;0.092;2023-11-19T05:29:25;16.41;52.95
76785;SHT30;66893;44.316;0.092;2023-11-19T05:31:50;16.41;52.91
76785;SHT30;66893;44.316;0.092;2023-11-19T05:34:15;16.40;52.87
76785;SHT30;66893;44.316;0.092;2023-11-19T05:36:41;16.40;52.91
76785;SHT30;66893;44.316;0.092;2023-11-19T05:39:06;16.41;52.87
76785;SHT30;66893;44.316;0.092;2023-11-19T05:41:32;16.41;52.87
76785;SHT30;66893;44.316;0.092;2023-11-19T05:43:57;16.38;52.91
76785;SHT30;66893;44.316;0.092;2023-11-19T05:46:22;16.38;52.89
76785;SHT30;66893;44.316;0.092;2023-11-19T05:48:48;16.38;52.90
76785;SHT30;66893;44.316;0.092;2023-11-19T05:51:14;16.37;52.89
76785;SHT30;66893;44.316;0.092;2023-11-19T05:53:42;16.38;52.91
76785;SHT30;66893;44.316;0.092;2023-11-19T05:56:08;16.35;52.89
76785;SHT30;66893;44.316;0.092;2023-11-19T05:58:34;16.35;52.90
76785;SHT30;66893;44.316;0.092;2023-11-19T06:01:01;16.34;52.88
76785;SHT30;66893;44.316;0.092;2023-11-19T06:03:27;16.34;52.89
76785;SHT30;66893;44.316;0.092;2023-11-19T06:05:53;16.34;52.89
76785;SHT30;66893;44.316;0.092;2023-11-19T06:08:20;16.32;52.88
76785;SHT30;66893;44.316;0.092;2023-11-19T06:10:46;16.30;52.86
76785;SHT30;66893;44.316;0.092;2023-11-19T06:13:14;16.30;52.87
76785;SHT30;66893;44.316;0.092;2023-11-19T06:15:43;16.25;52.86
76785;SHT30;66893;44.316;0.092;2023-11-19T06:18:09;16.27;52.85
76785;SHT30;66893;44.316;0.092;2023-11-19T06:20:36;16.27;52.82
76785;SHT30;66893;44.316;0.092;2023-11-19T06:23:02;16.22;52.82
76785;SHT30;66893;44.316;0.092;2023-11-19T06:25:27;16.24;52.81
76785;SHT30;66893;44.316;0.092;2023-11-19T06:27:53;16.22;52.78
76785;SHT30;66893;44.316;0.092;2023-11-19T06:30:19;16.24;52.84
76785;SHT30;66893;44.316;0.092;2023-11-19T06:32:45;16.22;52.83
76785;SHT30;66893;44.316;0.092;2023-11-19T06:35:10;16.22;52.85
76785;SHT30;66893;44.316;0.092;2023-11-19T06:37:38;16.20;52.84
76785;SHT30;66893;44.316;0.092;2023-11-19T06:40:04;16.22;52.85
76785;SHT30;66893;44.316;0.092;2023-11-19T06:42:30;16.20;52.89
76785;SHT30;66893;44.316;0.092;2023-11-19T06:44:55;16.18;52.86
76785;SHT30;66893;44.316;0.092;2023-11-19T06:47:26;16.20;52.87
76785;SHT30;66893;44.316;0.092;2023-11-19T06:49:52;16.20;52.87
76785;SHT30;66893;44.316;0.092;2023-11-19T06:52:17;16.18;52.92
76785;SHT30;66893;44.316;0.092;2023-11-19T06:54:42;16.17;52.97
76785;SHT30;66893;44.316;0.092;2023-11-19T06:57:08;16.18;52.93
76785;SHT30;66893;44.316;0.092;2023-11-19T06:59:34;16.17;52.98
76785;SHT30;66893;44.316;0.092;2023-11-19T07:02:00;16.17;52.99
76785;SHT30;66893;44.316;0.092;2023-11-19T07:04:25;16.18;53.01
76785;SHT30;66893;44.316;0.092;2023-11-19T07:06:50;16.18;53.03
76785;SHT30;66893;44.316;0.092;2023-11-19T07:09:18;16.20;53.01
76785;SHT30;66893;44.316;0.092;2023-11-19T07:11:44;16.17;53.07
76785;SHT30;66893;44.316;0.092;2023-11-19T07:14:11;16.17;53.07
76785;SHT30;66893;44.316;0.092;2023-11-19T07:16:38;16.18;53.09
76785;SHT30;66893;44.316;0.092;2023-11-19T07:19:04;16.17;53.09
76785;SHT30;66893;44.316;0.092;2023-11-19T07:21:33;16.18;53.14
76785;SHT30;66893;44.316;0.092;2023-11-19T07:23:59;16.17;53.17
76785;SHT30;66893;44.316;0.092;2023-11-19T07:26:25;16.18;53.14
76785;SHT30;66893;44.316;0.092;2023-11-19T07:28:50;16.21;53.16
76785;SHT30;66893;44.316;0.092;2023-11-19T07:31:17;16.17;53.20
76785;SHT30;66893;44.316;0.092;2023-11-19T07:33:46;16.20;53.27
76785;SHT30;66893;44.316;0.092;2023-11-19T07:36:12;16.21;53.31
76785;SHT30;66893;44.316;0.092;2023-11-19T07:38:38;16.22;53.35
76785;SHT30;66893;44.316;0.092;2023-11-19T07:41:05;16.20;53.42
76785;SHT30;66893;44.316;0.092;2023-11-19T07:43:31;16.21;53.46
76785;SHT30;66893;44.316;0.092;2023-11-19T07:45:56;16.21;53.52
76785;SHT30;66893;44.316;0.092;2023-11-19T07:48:24;16.21;53.60
76785;SHT30;66893;44.316;0.092;2023-11-19T07:50:49;16.18;53.59
76785;SHT30;66893;44.316;0.092;2023-11-19T07:53:19;16.20;53.67
76785;SHT30;66893;44.316;0.092;2023-11-19T07:55:45;16.20;53.73
76785;SHT30;66893;44.316;0.092;2023-11-19T07:58:11;16.21;53.81
76785;SHT30;66893;44.316;0.092;2023-11-19T08:00:37;16.21;53.84
76785;SHT30;66893;44.316;0.092;2023-11-19T08:03:05;16.24;53.88
76785;SHT30;66893;44.316;0.092;2023-11-19T08:05:31;16.22;53.95
76785;SHT30;66893;44.316;0.092;2023-11-19T08:07:56;16.25;54.05
76785;SHT30;66893;44.316;0.092;2023-11-19T08:10:22;16.25;54.09
76785;SHT30;66893;44.316;0.092;2023-11-19T08:12:48;16.28;54.11
76785;SHT30;66893;44.316;0.092;2023-11-19T08:15:14;16.32;54.22
76785;SHT30;66893;44.316;0.092;2023-11-19T08:17:39;16.34;54.23
76785;SHT30;66893;44.316;0.092;2023-11-19T08:20:05;16.35;54.34
76785;SHT30;66893;44.316;0.092;2023-11-19T08:22:35;16.38;54.31
76785;SHT30;66893;44.316;0.092;2023-11-19T08:25:00;16.40;54.42
76785;SHT30;66893;44.316;0.092;2023-11-19T08:27:26;16.42;54.53
76785;SHT30;66893;44.316;0.092;2023-11-19T08:29:55;16.45;54.57
76785;SHT30;66893;44.316;0.092;2023-11-19T08:32:25;16.47;54.63
76785;SHT30;66893;44.316;0.092;2023-11-19T08:34:50;16.48;54.69
76785;SHT30;66893;44.316;0.092;2023-11-19T08:37:16;16.51;54.78
76785;SHT30;66893;44.316;0.092;2023-11-19T08:39:46;16.48;54.92
76785;SHT30;66893;44.316;0.092;2023-11-19T08:42:11;16.52;54.97
76785;SHT30;66893;44.316;0.092;2023-11-19T08:44:37;16.55;55.02
76785;SHT30;66893;44.316;0.092;2023-11-19T08:47:02;16.58;55.09
76785;SHT30;66893;44.316;0.092;2023-11-19T08:49:28;16.58;55.16
76785;SHT30;66893;44.316;0.092;2023-11-19T08:51:53;16.61;55.18
76785;SHT30;66893;44.316;0.092;2023-11-19T08:54:19;16.65;55.27
76785;SHT30;66893;44.316;0.092;2023-11-19T08:56:46;16.66;55.31
76785;SHT30;66893;44.316;0.092;2023-11-19T08:59:12;16.66;55.45
76785;SHT30;66893;44.316;0.092;2023-11-19T09:01:37;16.69;55.51
76785;SHT30;66893;44.316;0.092;2023-11-19T09:04:03;16.72;55.95
76785;SHT30;66893;44.316;0.092;2023-11-19T09:06:29;16.76;55.91
76785;SHT30;66893;44.316;0.092;2023-11-19T09:08:55;16.80;55.96
76785;SHT30;66893;44.316;0.092;2023-11-19T09:11:25;16.85;56.13
76785;SHT30;66893;44.316;0.092;2023-11-19T09:13:51;16.86;56.14
76785;SHT30;66893;44.316;0.092;2023-11-19T09:16:16;16.87;56.21
76785;SHT30;66893;44.316;0.092;2023-11-19T09:18:42;16.92;56.26
76785;SHT30;66893;44.316;0.092;2023-11-19T09:21:07;16.93;56.37
76785;SHT30;66893;44.316;0.092;2023-11-19T09:23:32;16.96;56.44
76785;SHT30;66893;44.316;0.092;2023-11-19T09:26:07;16.97;56.33
76785;SHT30;66893;44.316;0.092;2023-11-19T09:28:33;16.99;56.45
76785;SHT30;66893;44.316;0.092;2023-11-19T09:30:58;17.04;56.60
76785;SHT30;66893;44.316;0.092;2023-11-19T09:33:24;17.04;56.64
76785;SHT30;66893;44.316;0.092;2023-11-19T09:35:50;17.09;56.64
76785;SHT30;66893;44.316;0.092;2023-11-19T09:38:16;17.12;56.75
76785;SHT30;66893;44.316;0.092;2023-11-19T09:40:42;17.13;56.86
76785;SHT30;66893;44.316;0.092;2023-11-19T09:43:07;17.17;56.84
76785;SHT30;66893;44.316;0.092;2023-11-19T09:45:50;17.20;56.81
76785;SHT30;66893;44.316;0.092;2023-11-19T09:48:19;17.20;57.03
76785;SHT30;66893;44.316;0.092;2023-11-19T09:50:48;17.23;57.09
76785;SHT30;66893;44.316;0.092;2023-11-19T09:53:14;17.28;57.12
76785;SHT30;66893;44.316;0.092;2023-11-19T09:55:41;17.31;57.41
76785;SHT30;66893;44.316;0.092;2023-11-19T09:58:07;17.30;57.88
76785;SHT30;66893;44.316;0.092;2023-11-19T10:00:33;17.32;57.98
76785;SHT30;66893;44.316;0.092;2023-11-19T10:03:00;17.35;58.61
76785;SHT30;66893;44.316;0.092;2023-11-19T10:05:25;17.40;58.72
76785;SHT30;66893;44.316;0.092;2023-11-19T10:07:52;17.44;58.80
76785;SHT30;66893;44.316;0.092;2023-11-19T10:10:17;17.45;58.91
76785;SHT30;66893;44.316;0.092;2023-11-19T10:12:44;17.50;59.14
76785;SHT30;66893;44.316;0.092;2023-11-19T10:15:20;17.57;59.24
76785;SHT30;66893;44.316;0.092;2023-11-19T10:17:46;17.61;59.43
76785;SHT30;66893;44.316;0.092;2023-11-19T10:20:11;17.69;59.60
76785;SHT30;66893;44.316;0.092;2023-11-19T10:22:37;17.69;59.53
76785;SHT30;66893;44.316;0.092;2023-11-19T10:25:03;17.75;59.76
76785;SHT30;66893;44.316;0.092;2023-11-19T10:27:29;17.82;60.06
76785;SHT30;66893;44.316;0.092;2023-11-19T10:29:59;17.86;60.34
76785;SHT30;66893;44.316;0.092;2023-11-19T10:32:25;17.90;60.92
76785;SHT30;66893;44.316;0.092;2023-11-19T10:34:50;17.95;60.65
76785;SHT30;66893;44.316;0.092;2023-11-19T10:37:28;18.06;60.70
76785;SHT30;66893;44.316;0.092;2023-11-19T10:39:57;18.10;60.45
76785;SHT30;66893;44.316;0.092;2023-11-19T10:42:23;18.17;60.66
76785;SHT30;66893;44.316;0.092;2023-11-19T10:44:49;18.23;60.70
76785;SHT30;66893;44.316;0.092;2023-11-19T10:47:15;18.33;60.74
76785;SHT30;66893;44.316;0.092;2023-11-19T10:49:43;18.36;60.60
76785;SHT30;66893;44.316;0.092;2023-11-19T10:52:11;18.44;61.00
76785;SHT30;66893;44.316;0.092;2023-11-19T10:54:43;18.51;60.95
76785;SHT30;66893;44.316;0.092;2023-11-19T10:57:09;18.61;61.18
76785;SHT30;66893;44.316;0.092;2023-11-19T10:59:38;18.72;60.83
76785;SHT30;66893;44.316;0.092;2023-11-19T11:02:09;18.79;61.26
76785;SHT30;66893;44.316;0.092;2023-11-19T11:04:39;18.89;60.96
76785;SHT30;66893;44.316;0.092;2023-11-19T11:07:05;18.98;61.04
76785;SHT30;66893;44.316;0.092;2023-11-19T11:09:32;19.05;60.90
76785;SHT30;66893;44.316;0.092;2023-11-19T11:11:59;19.14;60.97
76785;SHT30;66893;44.316;0.092;2023-11-19T11:14:25;19.26;60.90
76785;SHT30;66893;44.316;0.092;2023-11-19T11:16:53;19.34;61.09
76785;SHT30;66893;44.316;0.092;2023-11-19T11:19:19;19.46;61.04
76785;SHT30;66893;44.316;0.092;2023-11-19T11:21:51;19.54;60.88
76785;SHT30;66893;44.316;0.092;2023-11-19T11:24:28;19.65;60.76
76785;SHT30;66893;44.316;0.092;2023-11-19T11:29:48;19.86;60.68
76785;SHT30;66893;44.316;0.092;2023-11-19T11:32:33;19.96;60.68
76785;SHT30;66893;44.316;0.092;2023-11-19T11:37:58;20.20;60.47
76785;SHT30;66893;44.316;0.092;2023-11-19T11:40:25;20.29;60.49
76785;SHT30;66893;44.316;0.092;2023-11-19T11:42:52;20.40;60.45
76785;SHT30;66893;44.316;0.092;2023-11-19T11:45:18;20.53;60.33
76785;SHT30;66893;44.316;0.092;2023-11-19T11:50:19;20.67;60.32
76785;SHT30;66893;44.316;0.092;2023-11-19T11:55:36;20.89;60.01
76785;SHT30;66893;44.316;0.092;2023-11-19T11:58:05;20.99;59.89
76785;SHT30;66893;44.316;0.092;2023-11-19T12:00:39;21.05;59.71
76785;SHT30;66893;44.316;0.092;2023-11-19T12:03:05;21.15;59.55
76785;SHT30;66893;44.316;0.092;2023-11-19T12:05:47;21.22;59.26
76785;SHT30;66893;44.316;0.092;2023-11-19T12:08:14;21.27;59.40
76785;SHT30;66893;44.316;0.092;2023-11-19T12:10:50;21.36;59.17
76785;SHT30;66893;44.316;0.092;2023-11-19T12:13:18;21.40;59.02
76785;SHT30;66893;44.316;0.092;2023-11-19T12:18:31;21.54;58.55
76785;SHT30;66893;44.316;0.092;2023-11-19T12:20:58;21.64;58.47
76785;SHT30;66893;44.316;0.092;2023-11-19T12:23:26;21.73;58.36
76785;SHT30;66893;44.316;0.092;2023-11-19T12:25:52;21.80;58.07
76785;SHT30;66893;44.316;0.092;2023-11-19T12:28:17;21.87;57.94
76785;SHT30;66893;44.316;0.092;2023-11-19T12:30:44;21.92;57.69
76785;SHT30;66893;44.316;0.092;2023-11-19T12:33:10;21.99;57.52
76785;SHT30;66893;44.316;0.092;2023-11-19T12:35:43;22.05;57.42
76785;SHT30;66893;44.316;0.092;2023-11-19T12:38:21;22.15;57.24
76785;SHT30;66893;44.316;0.092;2023-11-19T12:40:47;22.22;56.96
76785;SHT30;66893;44.316;0.092;2023-11-19T12:43:27;22.29;56.91
76785;SHT30;66893;44.316;0.092;2023-11-19T12:45:52;22.40;56.79
76785;SHT30;66893;44.316;0.092;2023-11-19T12:48:18;22.46;56.58
76785;SHT30;66893;44.316;0.092;2023-11-19T12:50:56;22.54;56.37
76785;SHT30;66893;44.316;0.092;2023-11-19T12:53:27;22.63;56.26
76785;SHT30;66893;44.316;0.092;2023-11-19T12:55:53;22.77;56.12
76785;SHT30;66893;44.316;0.092;2023-11-19T12:58:29;22.83;55.93
76785;SHT30;66893;44.316;0.092;2023-11-19T13:01:06;22.92;55.78
76785;SHT30;66893;44.316;0.092;2023-11-19T13:03:33;23.01;55.57
76785;SHT30;66893;44.316;0.092;2023-11-19T13:06:09;23.12;55.42
76785;SHT30;66893;44.316;0.092;2023-11-19T13:11:03;23.19;54.63
76785;SHT30;66893;44.316;0.092;2023-11-19T13:13:29;23.19;54.56
76785;SHT30;66893;44.316;0.092;2023-11-19T13:16:02;23.20;54.30
76785;SHT30;66893;44.316;0.092;2023-11-19T13:18:28;23.18;54.06
76785;SHT30;66893;44.316;0.092;2023-11-19T13:20:54;23.09;53.90
76785;SHT30;66893;44.316;0.092;2023-11-19T13:23:22;23.07;53.71
76785;SHT30;66893;44.316;0.092;2023-11-19T13:25:47;22.99;53.72
76785;SHT30;66893;44.316;0.092;2023-11-19T13:28:14;22.95;53.63
76785;SHT30;66893;44.316;0.092;2023-11-19T13:30:39;22.92;53.47
76785;SHT30;66893;44.316;0.092;2023-11-19T13:33:05;22.87;53.41
76785;SHT30;66893;44.316;0.092;2023-11-19T13:35:30;22.86;53.35
76785;SHT30;66893;44.316;0.092;2023-11-19T13:37:55;22.77;53.30
76785;SHT30;66893;44.316;0.092;2023-11-19T13:40:21;22.67;53.31
76785;SHT30;66893;44.316;0.092;2023-11-19T13:42:47;22.60;53.30
76785;SHT30;66893;44.316;0.092;2023-11-19T13:45:14;22.52;53.33
76785;SHT30;66893;44.316;0.092;2023-11-19T13:47:41;22.40;53.31
76785;SHT30;66893;44.316;0.092;2023-11-19T13:50:11;22.35;53.33
76785;SHT30;66893;44.316;0.092;2023-11-19T13:52:38;22.26;53.30
76785;SHT30;66893;44.316;0.092;2023-11-19T13:55:10;22.20;53.37
76785;SHT30;66893;44.316;0.092;2023-11-19T13:57:36;22.13;53.36
76785;SHT30;66893;44.316;0.092;2023-11-19T14:00:03;22.09;53.39
76785;SHT30;66893;44.316;0.092;2023-11-19T14:02:35;22.04;53.36
76785;SHT30;66893;44.316;0.092;2023-11-19T14:05:00;21.99;53.40
76785;SHT30;66893;44.316;0.092;2023-11-19T14:07:26;21.92;53.41
76785;SHT30;66893;44.316;0.092;2023-11-19T14:09:51;21.89;53.42
76785;SHT30;66893;44.316;0.092;2023-11-19T14:12:17;21.87;53.44
76785;SHT30;66893;44.316;0.092;2023-11-19T14:14:43;21.84;53.41
76785;SHT30;66893;44.316;0.092;2023-11-19T14:17:09;21.81;53.39
76785;SHT30;66893;44.316;0.092;2023-11-19T14:19:36;21.80;53.40
76785;SHT30;66893;44.316;0.092;2023-11-19T14:22:01;21.75;53.41
76785;SHT30;66893;44.316;0.092;2023-11-19T14:24:27;21.75;53.44
76785;SHT30;66893;44.316;0.092;2023-11-19T14:26:52;21.71;53.45
76785;SHT30;66893;44.316;0.092;2023-11-19T14:29:17;21.71;53.43
76785;SHT30;66893;44.316;0.092;2023-11-19T14:31:43;21.70;53.42
76785;SHT30;66893;44.316;0.092;2023-11-19T14:34:08;21.70;53.44
76785;SHT30;66893;44.316;0.092;2023-11-19T14:36:35;21.67;53.39
76785;SHT30;66893;44.316;0.092;2023-11-19T14:39:01;21.67;53.40
76785;SHT30;66893;44.316;0.092;2023-11-19T14:41:26;21.67;53.38
76785;SHT30;66893;44.316;0.092;2023-11-19T14:43:52;21.67;53.36
76785;SHT30;66893;44.316;0.092;2023-11-19T14:46:17;21.64;53.36
76785;SHT30;66893;44.316;0.092;2023-11-19T14:48:43;21.67;53.36
76785;SHT30;66893;44.316;0.092;2023-11-19T14:51:08;21.68;53.33
76785;SHT30;66893;44.316;0.092;2023-11-19T14:53:34;21.68;53.34
76785;SHT30;66893;44.316;0.092;2023-11-19T14:56:00;21.68;53.28
76785;SHT30;66893;44.316;0.092;2023-11-19T14:58:26;21.70;53.27
76785;SHT30;66893;44.316;0.092;2023-11-19T15:00:52;21.67;53.31
76785;SHT30;66893;44.316;0.092;2023-11-19T15:03:17;21.67;53.26
76785;SHT30;66893;44.316;0.092;2023-11-19T15:05:47;21.68;53.24
76785;SHT30;66893;44.316;0.092;2023-11-19T15:08:12;21.68;53.22
76785;SHT30;66893;44.316;0.092;2023-11-19T15:10:38;21.67;53.23
76785;SHT30;66893;44.316;0.092;2023-11-19T15:13:04;21.67;53.25
76785;SHT30;66893;44.316;0.092;2023-11-19T15:15:29;21.68;53.36
76785;SHT30;66893;44.316;0.092;2023-11-19T15:17:55;21.71;53.26
76785;SHT30;66893;44.316;0.092;2023-11-19T15:20:20;21.70;53.27
76785;SHT30;66893;44.316;0.092;2023-11-19T15:22:46;21.70;53.29
76785;SHT30;66893;44.316;0.092;2023-11-19T15:25:12;21.68;53.28
76785;SHT30;66893;44.316;0.092;2023-11-19T15:27:38;21.67;53.32
76785;SHT30;66893;44.316;0.092;2023-11-19T15:30:04;21.65;53.40
76785;SHT30;66893;44.316;0.092;2023-11-19T15:32:30;21.67;53.44
76785;SHT30;66893;44.316;0.092;2023-11-19T15:34:57;21.65;53.50
76785;SHT30;66893;44.316;0.092;2023-11-19T15:37:23;21.64;53.53
76785;SHT30;66893;44.316;0.092;2023-11-19T15:39:49;21.64;53.64
76785;SHT30;66893;44.316;0.092;2023-11-19T15:42:16;21.64;54.63
76785;SHT30;66893;44.316;0.092;2023-11-19T15:44:42;21.70;54.71
76785;SHT30;66893;44.316;0.092;2023-11-19T15:47:08;21.74;54.89
76785;SHT30;66893;44.316;0.092;2023-11-19T15:49:33;21.77;54.96